Terminal Aerodrome Forecast
Issued by NWS

Home | Current Version | Previous Version | Text Only | Print | Product List | Glossary On
Versions: 1 2 3 4 5 6 7 8 9 10 11 12 13 14 15 16 17 18 19 20 21
000
FTUS41 KCAR 022337
TAFFVE
TAF
KFVE 022337Z 0300/0324 VRB03KT 5SM -SHSN OVC015
      TEMPO 0300/0304 1 1/2SM -SHSN BR OVC008
     FM030400 04004KT 5SM -SHSN BR OVC009
     FM031200 35005KT P6SM VCSH OVC012
     FM032100 33008KT P6SM OVC018=

USA.gov is the U.S. government's official web portal to all federal, state and local government web resources and services.